createdAt,value
2018-05-13T00:00:09.697Z,14.83
2018-05-13T00:02:37.241Z,15.23
2018-05-13T00:05:04.761Z,13.30
2018-05-13T00:07:32.231Z,14.00
2018-05-13T00:09:59.788Z,13.07
2018-05-13T00:12:27.329Z,15.23
2018-05-13T00:14:54.861Z,16.03
2018-05-13T00:17:22.389Z,17.17
2018-05-13T00:19:49.918Z,18.63
2018-05-13T00:22:17.482Z,17.80
2018-05-13T00:24:45.035Z,15.67
2018-05-13T00:27:12.576Z,14.53
2018-05-13T00:29:40.106Z,15.13
2018-05-13T00:32:07.630Z,14.40
2018-05-13T00:34:35.151Z,16.63
2018-05-13T00:37:02.655Z,14.53
2018-05-13T00:39:30.177Z,16.60
2018-05-13T00:41:57.701Z,13.60
2018-05-13T00:44:25.214Z,16.53
2018-05-13T00:46:52.721Z,14.50
2018-05-13T00:49:20.238Z,16.70
2018-05-13T00:51:47.749Z,14.47
2018-05-13T00:54:27.149Z,15.13
2018-05-13T00:56:54.635Z,15.60
2018-05-13T00:59:22.186Z,15.27
2018-05-13T01:01:49.754Z,16.63
2018-05-13T01:04:17.287Z,15.73
2018-05-13T01:06:44.841Z,14.27
2018-05-13T01:09:12.405Z,15.47
2018-05-13T01:11:39.933Z,17.43
2018-05-13T01:14:07.465Z,16.03
2018-05-13T01:16:34.996Z,16.67
2018-05-13T01:19:02.558Z,15.40
2018-05-13T01:21:30.100Z,16.50
2018-05-13T01:23:57.658Z,16.37
2018-05-13T01:26:25.224Z,15.80
2018-05-13T01:28:52.740Z,15.93
2018-05-13T01:31:20.284Z,15.37
2018-05-13T01:33:47.809Z,17.17
2018-05-13T01:36:15.362Z,15.63
2018-05-13T01:38:42.863Z,16.37
2018-05-13T01:41:10.402Z,16.63
2018-05-13T01:43:37.906Z,14.83
2018-05-13T01:46:05.459Z,16.20
2018-05-13T01:48:32.987Z,14.37
2018-05-13T01:51:00.524Z,16.63
2018-05-13T01:53:28.083Z,13.67
2018-05-13T01:55:55.671Z,11.50
2018-05-13T01:58:23.195Z,9.33
2018-05-13T02:00:50.764Z,8.43
2018-05-13T02:03:18.311Z,7.37
2018-05-13T02:05:45.842Z,7.23
2018-05-13T02:10:44.953Z,6.07
2018-05-13T02:13:12.493Z,6.50
2018-05-13T02:15:40.285Z,8.97
2018-05-13T02:18:07.769Z,7.47
2018-05-13T02:20:35.310Z,10.20
2018-05-13T02:23:02.791Z,7.57
2018-05-13T02:25:30.305Z,7.60
2018-05-13T02:27:57.829Z,7.77
2018-05-13T02:30:25.342Z,9.80
2018-05-13T02:32:52.825Z,8.43
2018-05-13T02:35:20.366Z,10.43
2018-05-13T02:37:47.924Z,9.07
2018-05-13T02:40:15.443Z,12.30
2018-05-13T02:42:42.937Z,9.60
2018-05-13T02:45:10.494Z,8.37
2018-05-13T02:47:37.984Z,9.30
2018-05-13T02:50:05.528Z,9.33
2018-05-13T02:52:33.061Z,8.10
2018-05-13T02:55:00.553Z,7.87
2018-05-13T02:57:28.059Z,6.97
2018-05-13T02:59:55.570Z,7.13
2018-05-13T03:02:23.112Z,6.40
2018-05-13T03:04:50.622Z,9.50
2018-05-13T03:07:18.131Z,8.13
2018-05-13T03:09:45.645Z,7.87
2018-05-13T03:12:13.157Z,7.27
2018-05-13T03:14:40.647Z,7.30
2018-05-13T03:17:08.226Z,10.20
2018-05-13T03:19:35.734Z,8.17
2018-05-13T03:22:03.264Z,8.57
2018-05-13T03:24:30.754Z,10.33
2018-05-13T03:26:58.308Z,9.73
2018-05-13T03:29:26.626Z,12.83
2018-05-13T03:31:54.189Z,9.33
2018-05-13T03:34:21.734Z,10.67
2018-05-13T03:36:49.270Z,10.03
2018-05-13T03:39:16.755Z,11.17
2018-05-13T03:41:44.309Z,11.60
2018-05-13T03:44:11.889Z,11.03
2018-05-13T03:46:39.450Z,11.77
2018-05-13T03:49:06.987Z,10.07
2018-05-13T03:51:34.493Z,9.30
2018-05-13T03:54:01.991Z,9.20
2018-05-13T03:56:29.511Z,10.27
2018-05-13T03:58:57.029Z,9.37
2018-05-13T04:01:24.657Z,10.50
2018-05-13T04:03:52.347Z,9.80
2018-05-13T04:06:19.862Z,9.80
2018-05-13T04:08:59.246Z,9.77
2018-05-13T04:11:38.468Z,9.63
2018-05-13T04:14:17.587Z,11.63
2018-05-13T04:16:45.960Z,9.20
2018-05-13T04:19:13.481Z,10.13
2018-05-13T04:21:41.018Z,7.47
2018-05-13T04:24:08.570Z,8.77
2018-05-13T04:26:36.094Z,7.67
2018-05-13T04:29:03.656Z,9.07
2018-05-13T04:31:31.146Z,8.97
2018-05-13T04:33:58.640Z,7.13
2018-05-13T04:36:26.157Z,7.10
2018-05-13T04:38:53.694Z,7.60
2018-05-13T04:41:21.168Z,7.60
2018-05-13T04:43:48.687Z,7.83
2018-05-13T04:46:16.408Z,8.43
2018-05-13T04:48:44.247Z,7.97
2018-05-13T04:51:11.824Z,7.73
2018-05-13T04:53:39.337Z,7.80
2018-05-13T04:56:06.842Z,7.83
2018-05-13T04:58:34.356Z,7.10
2018-05-13T05:01:01.852Z,6.43
2018-05-13T05:03:29.362Z,7.07
2018-05-13T05:05:56.854Z,8.47
2018-05-13T05:08:24.352Z,6.73
2018-05-13T05:10:51.837Z,7.40
2018-05-13T05:13:19.349Z,7.47
2018-05-13T05:15:46.876Z,8.33
2018-05-13T05:18:14.434Z,8.80
2018-05-13T05:20:41.963Z,8.03
2018-05-13T05:23:09.475Z,8.67
2018-05-13T05:25:37.015Z,8.60
2018-05-13T05:28:04.547Z,9.63
2018-05-13T05:30:32.057Z,10.77
2018-05-13T05:32:59.585Z,11.23
2018-05-13T05:35:27.123Z,10.70
2018-05-13T05:37:54.666Z,11.47
2018-05-13T05:40:22.173Z,11.40
2018-05-13T05:42:49.703Z,9.83
2018-05-13T05:45:17.246Z,11.33
2018-05-13T05:47:44.775Z,10.37
2018-05-13T05:50:12.322Z,11.37
2018-05-13T05:52:39.849Z,10.17
2018-05-13T05:55:07.419Z,9.17
2018-05-13T05:57:34.911Z,9.20
2018-05-13T06:00:02.469Z,9.10
2018-05-13T06:02:29.974Z,9.40
2018-05-13T06:04:57.518Z,9.03
2018-05-13T06:07:25.258Z,10.30
2018-05-13T06:09:52.791Z,9.53
2018-05-13T06:12:20.342Z,8.90
2018-05-13T06:14:47.875Z,9.37
2018-05-13T06:17:15.403Z,9.33
2018-05-13T06:19:43.037Z,11.77
2018-05-13T06:22:10.455Z,8.90
2018-05-13T06:24:38.006Z,11.00
2018-05-13T06:27:05.548Z,7.33
2018-05-13T06:29:33.088Z,7.33
2018-05-13T06:32:00.628Z,7.47
2018-05-13T06:34:28.170Z,7.90
2018-05-13T06:36:55.695Z,12.23
2018-05-13T06:39:23.218Z,9.03
2018-05-13T06:41:50.791Z,13.73
2018-05-13T06:44:18.397Z,12.07
2018-05-13T06:46:46.044Z,15.63
2018-05-13T06:49:13.589Z,14.03
2018-05-13T06:51:41.166Z,18.40
2018-05-13T06:54:08.754Z,16.03
2018-05-13T06:56:36.408Z,19.20
2018-05-13T06:59:04.551Z,18.10
2018-05-13T07:01:32.201Z,20.03
2018-05-13T07:03:59.782Z,21.23
2018-05-13T07:06:27.353Z,22.60
2018-05-13T07:08:55.100Z,23.73
2018-05-13T07:11:22.711Z,22.50
2018-05-13T07:13:50.334Z,26.27
2018-05-13T07:16:17.925Z,25.63
2018-05-13T07:18:45.480Z,26.33
2018-05-13T07:21:13.129Z,22.90
2018-05-13T07:23:40.771Z,25.33
2018-05-13T07:26:08.353Z,23.30
2018-05-13T07:28:35.880Z,24.97
2018-05-13T07:31:03.463Z,25.27
2018-05-13T07:33:31.096Z,24.13
2018-05-13T07:35:58.654Z,26.73
2018-05-13T07:38:26.226Z,24.37
2018-05-13T07:40:53.811Z,23.93
2018-05-13T07:43:21.427Z,25.57
2018-05-13T07:45:49.028Z,26.00
2018-05-13T07:48:16.563Z,25.37
2018-05-13T07:50:44.208Z,27.97
2018-05-13T07:53:14.357Z,32.07
2018-05-13T07:55:41.972Z,27.83
2018-05-13T07:58:09.640Z,25.87
2018-05-13T08:00:37.605Z,28.90
2018-05-13T08:03:05.172Z,25.83
2018-05-13T08:05:32.764Z,23.23
2018-05-13T08:08:00.314Z,25.13
2018-05-13T08:10:27.927Z,28.60
2018-05-13T08:12:55.446Z,27.77
2018-05-13T08:15:22.991Z,27.83
2018-05-13T08:17:50.547Z,30.00
2018-05-13T08:20:18.177Z,34.67
2018-05-13T08:22:45.654Z,35.17
2018-05-13T08:25:13.265Z,35.87
2018-05-13T08:27:40.805Z,36.07
2018-05-13T08:30:08.334Z,39.60
2018-05-13T08:32:35.895Z,36.17
2018-05-13T08:35:03.603Z,37.90
2018-05-13T08:37:31.167Z,41.43
2018-05-13T08:39:58.751Z,36.30
2018-05-13T08:42:26.364Z,37.73
2018-05-13T08:44:53.996Z,37.43
2018-05-13T08:47:21.554Z,38.47
2018-05-13T08:49:49.166Z,38.60
2018-05-13T08:52:16.816Z,36.90
2018-05-13T08:54:44.399Z,40.47
2018-05-13T08:57:11.972Z,42.37
2018-05-13T08:59:39.795Z,39.63
2018-05-13T09:02:07.246Z,36.80
2018-05-13T09:04:34.721Z,40.10
2018-05-13T09:07:02.216Z,41.80
2018-05-13T09:09:29.686Z,45.13
2018-05-13T09:11:57.174Z,37.43
2018-05-13T09:14:24.672Z,39.87
2018-05-13T09:16:52.182Z,46.17
2018-05-13T09:19:19.664Z,43.73
2018-05-13T09:21:47.160Z,42.67
2018-05-13T09:24:14.638Z,41.37
2018-05-13T09:26:42.195Z,44.80
2018-05-13T09:29:09.667Z,43.13
2018-05-13T09:31:37.224Z,43.03
2018-05-13T09:34:04.717Z,44.27
2018-05-13T09:36:32.198Z,49.83
2018-05-13T09:38:59.916Z,48.30
2018-05-13T09:41:27.394Z,49.03
2018-05-13T09:43:54.895Z,43.63
2018-05-13T09:46:22.374Z,45.43
2018-05-13T09:48:49.976Z,50.70
2018-05-13T09:51:17.533Z,49.80
2018-05-13T09:53:44.978Z,47.70
2018-05-13T09:56:12.459Z,46.77
2018-05-13T09:58:39.966Z,49.77
2018-05-13T10:01:07.437Z,44.70
2018-05-13T10:03:34.930Z,44.47
2018-05-13T10:06:02.409Z,43.63
2018-05-13T10:08:29.911Z,46.20
2018-05-13T10:10:57.382Z,42.63
2018-05-13T10:13:24.870Z,46.33
2018-05-13T10:15:52.403Z,42.10
2018-05-13T10:18:19.892Z,42.13
2018-05-13T10:20:47.365Z,42.83
2018-05-13T10:23:14.849Z,44.50
2018-05-13T10:25:42.334Z,51.40
2018-05-13T10:28:09.817Z,47.23
2018-05-13T10:30:37.289Z,47.13
2018-05-13T10:33:04.769Z,49.07
2018-05-13T10:35:32.241Z,43.97
2018-05-13T10:37:59.732Z,39.50
2018-05-13T10:40:27.206Z,39.10
2018-05-13T10:42:54.693Z,41.30
2018-05-13T10:45:22.801Z,40.47
2018-05-13T10:47:50.294Z,43.00
2018-05-13T10:50:17.769Z,43.50
2018-05-13T10:52:45.273Z,46.67
2018-05-13T10:55:12.741Z,49.67
2018-05-13T10:57:40.272Z,46.97
2018-05-13T11:00:07.729Z,43.07
2018-05-13T11:02:35.205Z,36.00
2018-05-13T11:05:03.558Z,36.43
2018-05-13T11:07:31.033Z,33.93
2018-05-13T11:09:58.527Z,32.70
2018-05-13T11:12:25.993Z,34.40
2018-05-13T11:14:53.490Z,33.37
2018-05-13T11:17:20.965Z,31.30
2018-05-13T11:19:48.458Z,29.93
2018-05-13T11:22:15.934Z,28.00
2018-05-13T11:24:43.417Z,31.10
2018-05-13T11:27:10.901Z,27.83
2018-05-13T11:29:38.400Z,30.17
2018-05-13T11:32:05.866Z,34.37
2018-05-13T11:34:33.380Z,36.37
2018-05-13T11:37:00.849Z,36.03
2018-05-13T11:39:28.342Z,38.57
2018-05-13T11:41:55.810Z,42.50
2018-05-13T11:44:23.541Z,40.47
2018-05-13T11:46:51.042Z,41.20
2018-05-13T11:49:18.538Z,43.53
2018-05-13T11:51:46.009Z,53.57
2018-05-13T11:54:13.498Z,44.57
2018-05-13T11:56:40.958Z,53.80
2018-05-13T11:59:08.458Z,51.10
2018-05-13T12:01:35.922Z,52.97
2018-05-13T12:04:03.410Z,44.93
2018-05-13T12:06:30.882Z,47.63
2018-05-13T12:08:58.373Z,54.60
2018-05-13T12:11:31.746Z,57.00
2018-05-13T12:13:59.227Z,50.67
2018-05-13T12:16:27.492Z,52.73
2018-05-13T12:18:54.990Z,49.30
2018-05-13T12:21:22.475Z,57.03
2018-05-13T12:23:49.938Z,45.57
2018-05-13T12:26:17.424Z,44.57
2018-05-13T12:28:44.975Z,46.47
2018-05-13T12:31:12.398Z,44.63
2018-05-13T12:33:39.869Z,48.57
2018-05-13T12:36:07.365Z,46.77
2018-05-13T12:38:34.843Z,47.10
2018-05-13T12:41:02.347Z,50.17
2018-05-13T12:43:29.805Z,47.00
2018-05-13T12:45:57.294Z,49.93
2018-05-13T12:48:24.765Z,49.63
2018-05-13T12:50:52.246Z,50.03
2018-05-13T12:53:19.706Z,50.87
2018-05-13T12:55:47.185Z,50.50
2018-05-13T12:58:14.650Z,46.30
2018-05-13T13:00:42.133Z,48.13
2018-05-13T13:03:09.627Z,51.33
2018-05-13T13:05:37.112Z,48.97
2018-05-13T13:08:04.588Z,47.53
2018-05-13T13:10:32.122Z,52.93
2018-05-13T13:12:59.641Z,47.67
2018-05-13T13:15:27.102Z,45.20
2018-05-13T13:17:54.569Z,44.13
2018-05-13T13:20:22.061Z,47.57
2018-05-13T13:22:49.539Z,44.83
2018-05-13T13:25:17.030Z,47.83
2018-05-13T13:27:44.502Z,44.13
2018-05-13T13:30:11.981Z,49.90
2018-05-13T13:32:39.454Z,42.20
2018-05-13T13:35:07.210Z,45.90
2018-05-13T13:37:34.678Z,50.10
2018-05-13T13:40:02.185Z,52.30
2018-05-13T13:42:29.666Z,41.97
2018-05-13T13:44:57.148Z,48.80
2018-05-13T13:47:25.746Z,42.93
2018-05-13T13:49:53.134Z,43.23
2018-05-13T13:52:20.617Z,40.93
2018-05-13T13:54:48.390Z,46.50
2018-05-13T13:57:15.904Z,40.43
2018-05-13T13:59:43.373Z,51.50
2018-05-13T14:02:10.859Z,47.77
2018-05-13T14:04:38.378Z,51.30
2018-05-13T14:07:05.836Z,43.13
2018-05-13T14:09:33.312Z,43.33
2018-05-13T14:12:00.860Z,48.67
2018-05-13T14:14:28.278Z,49.90
2018-05-13T14:16:55.774Z,43.00
2018-05-13T14:19:23.234Z,47.70
2018-05-13T14:21:50.723Z,48.80
2018-05-13T14:24:18.194Z,49.97
2018-05-13T14:26:45.683Z,44.03
2018-05-13T14:29:13.175Z,41.63
2018-05-13T14:31:40.660Z,43.47
2018-05-13T14:34:08.138Z,43.50
2018-05-13T14:36:35.634Z,48.67
2018-05-13T14:39:11.822Z,53.77
2018-05-13T14:41:30.647Z,44.93
2018-05-13T14:43:58.082Z,45.27
2018-05-13T14:46:25.577Z,41.80
2018-05-13T14:48:53.082Z,40.27
2018-05-13T14:51:20.567Z,40.13
2018-05-13T14:53:48.039Z,41.27
2018-05-13T14:56:15.531Z,41.90
2018-05-13T14:58:42.998Z,39.80
2018-05-13T15:01:10.508Z,40.00
2018-05-13T15:03:37.973Z,41.53
2018-05-13T15:06:05.438Z,37.33
2018-05-13T15:08:32.922Z,44.93
2018-05-13T15:11:00.386Z,39.90
2018-05-13T15:13:27.875Z,44.33
2018-05-13T15:15:55.342Z,42.00
2018-05-13T15:18:22.846Z,39.60
2018-05-13T15:20:50.327Z,43.33
2018-05-13T15:23:17.822Z,45.13
2018-05-13T15:25:45.307Z,42.83
2018-05-13T15:28:12.794Z,47.20
2018-05-13T15:30:40.265Z,39.00
2018-05-13T15:33:07.763Z,41.67
2018-05-13T15:35:35.234Z,37.70
2018-05-13T15:38:02.729Z,41.83
2018-05-13T15:40:30.204Z,42.70
2018-05-13T15:42:57.753Z,39.40
2018-05-13T15:45:25.173Z,42.03
2018-05-13T15:47:52.662Z,42.30
2018-05-13T15:50:20.139Z,44.17
2018-05-13T15:52:47.623Z,40.23
2018-05-13T15:55:15.189Z,39.60
2018-05-13T15:57:42.596Z,40.83
2018-05-13T16:00:10.057Z,37.77
2018-05-13T16:02:37.545Z,40.67
2018-05-13T16:05:05.023Z,43.10
2018-05-13T16:07:32.516Z,40.23
2018-05-13T16:09:59.992Z,41.30
2018-05-13T16:12:27.485Z,43.13
2018-05-13T16:14:54.954Z,46.30
2018-05-13T16:17:22.445Z,44.37
2018-05-13T16:19:49.998Z,46.37
2018-05-13T16:22:17.398Z,48.67
2018-05-13T16:24:44.891Z,52.77
2018-05-13T16:27:12.371Z,46.20
2018-05-13T16:29:39.948Z,45.43
2018-05-13T16:32:07.347Z,46.47
2018-05-13T16:34:34.838Z,46.03
2018-05-13T16:37:02.305Z,45.27
2018-05-13T16:39:29.800Z,43.30
2018-05-13T16:41:57.316Z,46.33
2018-05-13T16:44:24.806Z,45.90
2018-05-13T16:46:53.049Z,49.20
2018-05-13T16:49:20.541Z,49.97
2018-05-13T16:51:48.018Z,50.73
2018-05-13T16:54:15.518Z,49.47
2018-05-13T16:56:43.006Z,49.20
2018-05-13T16:59:10.490Z,53.20
2018-05-13T17:01:37.958Z,54.17
2018-05-13T17:04:05.446Z,54.50
2018-05-13T17:06:32.919Z,51.40
2018-05-13T17:09:00.411Z,53.50
2018-05-13T17:11:27.884Z,50.53
2018-05-13T17:13:55.376Z,50.93
2018-05-13T17:16:22.857Z,49.43
2018-05-13T17:18:50.350Z,55.67
2018-05-13T17:21:17.817Z,54.83
2018-05-13T17:23:45.310Z,54.97
2018-05-13T17:26:12.788Z,52.30
2018-05-13T17:28:40.279Z,52.50
2018-05-13T17:31:07.750Z,57.10
2018-05-13T17:33:35.234Z,53.63
2018-05-13T17:36:02.718Z,58.97
2018-05-13T17:38:30.210Z,55.27
2018-05-13T17:40:57.697Z,56.77
2018-05-13T17:43:25.211Z,53.30
2018-05-13T17:45:52.716Z,57.97
2018-05-13T17:48:20.183Z,54.33
2018-05-13T17:50:47.678Z,53.67
2018-05-13T17:53:15.230Z,55.30
2018-05-13T17:55:42.735Z,50.73
2018-05-13T17:58:10.201Z,53.73
2018-05-13T18:00:37.696Z,54.33
2018-05-13T18:03:05.247Z,55.67
2018-05-13T18:05:32.682Z,52.87
2018-05-13T18:08:00.161Z,56.63
2018-05-13T18:10:27.654Z,53.90
2018-05-13T18:12:55.128Z,55.37
2018-05-13T18:15:22.607Z,58.13
2018-05-13T18:17:50.089Z,54.27
2018-05-13T18:20:17.586Z,52.27
2018-05-13T18:22:45.069Z,53.03
2018-05-13T18:25:12.559Z,55.10
2018-05-13T18:27:40.026Z,55.10
2018-05-13T18:30:07.517Z,53.57
2018-05-13T18:32:34.987Z,58.73
2018-05-13T18:35:02.475Z,61.93
2018-05-13T18:37:29.949Z,58.50
2018-05-13T18:39:57.436Z,60.27
2018-05-13T18:42:24.923Z,59.20
2018-05-13T18:44:52.410Z,59.03
2018-05-13T18:47:19.881Z,64.20
2018-05-13T18:49:47.374Z,57.17
2018-05-13T18:52:14.838Z,54.03
2018-05-13T18:54:42.335Z,58.27
2018-05-13T18:57:09.808Z,60.03
2018-05-13T18:59:37.301Z,61.93
2018-05-13T19:02:04.778Z,58.20
2018-05-13T19:04:32.247Z,64.90
2018-05-13T19:06:59.746Z,65.37
2018-05-13T19:09:27.235Z,64.13
2018-05-13T19:11:54.728Z,66.77
2018-05-13T19:14:22.193Z,61.20
2018-05-13T19:16:49.680Z,61.40
2018-05-13T19:19:17.226Z,69.27
2018-05-13T19:21:44.710Z,68.43
2018-05-13T19:24:12.182Z,70.10
2018-05-13T19:26:39.671Z,65.03
2018-05-13T19:29:07.284Z,71.53
2018-05-13T19:31:34.793Z,66.00
2018-05-13T19:34:02.254Z,67.27
2018-05-13T19:36:29.737Z,70.70
2018-05-13T19:38:57.209Z,71.10
2018-05-13T19:41:24.750Z,64.33
2018-05-13T19:43:52.222Z,69.07
2018-05-13T19:46:19.714Z,68.17
2018-05-13T19:48:47.259Z,72.17
2018-05-13T19:51:14.719Z,66.53
2018-05-13T19:53:42.190Z,66.43
2018-05-13T19:56:09.674Z,62.07
2018-05-13T19:58:37.149Z,73.77
2018-05-13T20:01:04.634Z,66.60
2018-05-13T20:03:32.296Z,68.63
2018-05-13T20:05:59.610Z,60.40
2018-05-13T20:08:27.074Z,66.23
2018-05-13T20:10:54.580Z,63.13
2018-05-13T20:13:22.054Z,58.13
2018-05-13T20:15:49.538Z,62.33
2018-05-13T20:18:17.011Z,60.63
2018-05-13T20:20:44.493Z,58.17
2018-05-13T20:23:23.658Z,59.20
2018-05-13T20:25:51.098Z,60.13
2018-05-13T20:28:18.581Z,60.23
2018-05-13T20:30:46.042Z,55.20
2018-05-13T20:33:13.530Z,54.50
2018-05-13T20:35:40.998Z,54.80
2018-05-13T20:38:08.483Z,62.57
2018-05-13T20:40:35.958Z,55.47
2018-05-13T20:43:03.440Z,51.80
2018-05-13T20:45:30.905Z,54.93
2018-05-13T20:47:58.392Z,52.47
2018-05-13T20:50:25.858Z,54.23
2018-05-13T20:52:53.349Z,57.47
2018-05-13T20:55:20.813Z,54.07
2018-05-13T20:57:48.306Z,56.00
2018-05-13T21:00:15.784Z,54.37
2018-05-13T21:02:43.278Z,56.20
2018-05-13T21:05:10.750Z,57.73
2018-05-13T21:07:38.250Z,60.13
2018-05-13T21:10:05.714Z,53.63
2018-05-13T21:12:33.226Z,59.87
2018-05-13T21:15:00.689Z,54.37
2018-05-13T21:17:28.187Z,58.13
2018-05-13T21:19:55.656Z,57.63
2018-05-13T21:22:23.137Z,52.00
2018-05-13T21:24:50.601Z,50.03
2018-05-13T21:27:18.086Z,58.80
2018-05-13T21:29:45.551Z,51.80
2018-05-13T21:32:13.045Z,56.50
2018-05-13T21:34:40.520Z,49.20
2018-05-13T21:37:07.981Z,44.90
2018-05-13T21:39:35.470Z,44.97
2018-05-13T21:42:02.934Z,47.93
2018-05-13T21:44:30.428Z,45.30
2018-05-13T21:46:57.893Z,45.63
2018-05-13T21:49:25.378Z,41.03
2018-05-13T21:51:52.838Z,43.43
2018-05-13T21:54:20.336Z,48.07
2018-05-13T21:56:47.813Z,46.70
2018-05-13T21:59:15.311Z,46.90
2018-05-13T22:01:42.801Z,49.93
2018-05-13T22:04:10.283Z,53.90
2018-05-13T22:06:37.755Z,49.87
2018-05-13T22:09:06.157Z,51.60
2018-05-13T22:11:33.685Z,48.03
2018-05-13T22:14:01.175Z,54.97
2018-05-13T22:16:28.642Z,50.83
2018-05-13T22:18:56.134Z,50.23
2018-05-13T22:21:23.603Z,48.33
2018-05-13T22:23:51.098Z,52.67
2018-05-13T22:26:18.570Z,53.30
2018-05-13T22:28:46.062Z,52.53
2018-05-13T22:31:13.536Z,54.60
2018-05-13T22:33:41.027Z,58.20
2018-05-13T22:36:08.502Z,54.80
2018-05-13T22:38:35.992Z,61.10
2018-05-13T22:41:03.474Z,64.13
2018-05-13T22:43:31.019Z,57.73
2018-05-13T22:45:58.491Z,61.67
2018-05-13T22:48:25.978Z,66.70
2018-05-13T22:50:53.451Z,64.80
2018-05-13T22:53:20.923Z,59.60
2018-05-13T22:55:48.410Z,62.40
2018-05-13T22:58:15.875Z,59.80
2018-05-13T23:00:43.369Z,59.10
2018-05-13T23:03:10.895Z,63.93
2018-05-13T23:05:38.386Z,64.60
2018-05-13T23:08:05.878Z,79.03
2018-05-13T23:10:33.362Z,65.87
2018-05-13T23:13:00.822Z,68.97
2018-05-13T23:15:28.311Z,72.83
2018-05-13T23:17:55.775Z,71.67
2018-05-13T23:20:23.261Z,82.23
2018-05-13T23:22:50.725Z,77.73
2018-05-13T23:25:18.209Z,66.97
2018-05-13T23:27:45.673Z,74.07
2018-05-13T23:30:13.173Z,70.27
2018-05-13T23:32:40.634Z,70.63
2018-05-13T23:35:08.123Z,85.43
2018-05-13T23:37:36.309Z,78.57
2018-05-13T23:40:03.794Z,68.37
2018-05-13T23:42:31.258Z,68.07
2018-05-13T23:44:58.741Z,74.10
2018-05-13T23:47:26.205Z,75.93
2018-05-13T23:49:53.689Z,82.47
2018-05-13T23:52:21.161Z,70.90
2018-05-13T23:54:48.657Z,81.73
2018-05-13T23:57:16.117Z,79.87
2018-05-13T23:59:43.612Z,76.87
